LNACE ENRO-ENRO

Flight info

Callsign LNACE
Flight time 0h 24m
Altitude 4500
Route ENRO ENRO
Aircraft DA42

Departure

Time 2026-05-07 15:55
Airport Røros Airport (ENRO)

Arrival

Time 2026-05-07 16:19
Airport Røros Airport (ENRO)
Time Latitude Longitude Altitude Speed Heading
2026-05-07 15:49 62.57644 11.35385 2054 ft 0 kts 151°
2026-05-07 15:50 62.57632 11.35371 2054 ft 8 kts 237°
2026-05-07 15:51 62.57615 11.35289 2054 ft 0 kts 225°
2026-05-07 15:51 62.57615 11.35288 2054 ft 0 kts 225°
2026-05-07 15:51 62.57615 11.35289 2054 ft 0 kts 225°
2026-05-07 15:53 62.57604 11.35263 2054 ft 6 kts 226°
2026-05-07 15:53 62.57586 11.35158 2054 ft 8 kts 307°
2026-05-07 15:54 62.57593 11.35141 2054 ft 10 kts 314°
2026-05-07 15:54 62.57803 11.34707 2054 ft 68 kts 316°
2026-05-07 15:54 62.58198 11.33877 2220 ft 80 kts 315°
2026-05-07 15:54 62.58615 11.32967 2437 ft 93 kts 313°
2026-05-07 15:55 62.58982 11.31850 2791 ft 91 kts 282°
2026-05-07 15:55 62.58722 11.30620 3104 ft 100 kts 217°
2026-05-07 15:55 62.58036 11.30255 3412 ft 104 kts 189°
2026-05-07 15:55 62.57311 11.30102 3773 ft 102 kts 187°
2026-05-07 15:56 62.56611 11.29987 4083 ft 100 kts 187°
2026-05-07 15:56 62.55924 11.29828 4396 ft 97 kts 191°
2026-05-07 15:56 62.55191 11.29619 4484 ft 120 kts 191°
2026-05-07 15:56 62.54308 11.29206 4474 ft 142 kts 203°
2026-05-07 15:57 62.53438 11.28085 4550 ft 147 kts 218°
2026-05-07 15:57 62.52577 11.26759 4471 ft 157 kts 217°
2026-05-07 15:57 62.51657 11.25476 4471 ft 158 kts 207°
2026-05-07 15:57 62.50603 11.24890 4539 ft 157 kts 182°
2026-05-07 15:58 62.49531 11.25487 4513 ft 166 kts 152°
2026-05-07 15:58 62.48553 11.26830 4502 ft 171 kts 149°
2026-05-07 15:58 62.47556 11.28222 4498 ft 169 kts 149°
2026-05-07 15:58 62.46559 11.29548 4489 ft 167 kts 150°
2026-05-07 15:59 62.45566 11.30866 4495 ft 169 kts 150°
2026-05-07 15:59 62.44559 11.32195 4495 ft 169 kts 150°
2026-05-07 15:59 62.43555 11.33492 4493 ft 167 kts 152°
2026-05-07 15:59 62.42536 11.34634 4493 ft 167 kts 155°
2026-05-07 16:00 62.41499 11.35744 4496 ft 166 kts 155°
2026-05-07 16:00 62.40471 11.36855 4492 ft 165 kts 155°
2026-05-07 16:00 62.39445 11.37964 4498 ft 165 kts 155°
2026-05-07 16:00 62.38459 11.39233 4501 ft 166 kts 144°
2026-05-07 16:01 62.37576 11.40824 4503 ft 164 kts 140°
2026-05-07 16:01 62.36650 11.42239 4504 ft 163 kts 153°
2026-05-07 16:01 62.35616 11.43265 4501 ft 163 kts 160°
2026-05-07 16:01 62.34545 11.44012 4521 ft 161 kts 171°
2026-05-07 16:02 62.33429 11.44027 4483 ft 161 kts 193°
2026-05-07 16:02 62.32366 11.43348 4515 ft 157 kts 209°
2026-05-07 16:02 62.31665 11.41885 4852 ft 131 kts 245°
2026-05-07 16:02 62.31606 11.40034 5130 ft 126 kts 286°
2026-05-07 16:03 62.32078 11.38425 5286 ft 131 kts 308°
2026-05-07 16:03 62.32625 11.36911 5561 ft 126 kts 305°
2026-05-07 16:03 62.33154 11.35412 5822 ft 126 kts 305°
2026-05-07 16:03 62.33678 11.33912 6007 ft 128 kts 305°
2026-05-07 16:04 62.34243 11.32303 6005 ft 140 kts 305°
2026-05-07 16:04 62.34852 11.30576 6009 ft 148 kts 306°
2026-05-07 16:04 62.35483 11.28763 6006 ft 154 kts 305°
2026-05-07 16:04 62.36128 11.26888 6009 ft 156 kts 305°
2026-05-07 16:05 62.36782 11.25009 6002 ft 157 kts 306°
2026-05-07 16:05 62.37436 11.23114 6006 ft 158 kts 305°
2026-05-07 16:05 62.38089 11.21201 6011 ft 159 kts 305°
2026-05-07 16:05 62.38736 11.19303 6010 ft 159 kts 305°
2026-05-07 16:06 62.39391 11.17380 6008 ft 159 kts 305°
2026-05-07 16:06 62.39992 11.15395 5998 ft 158 kts 294°
2026-05-07 16:06 62.40385 11.13193 6007 ft 158 kts 288°
2026-05-07 16:06 62.40738 11.10956 6013 ft 157 kts 288°
2026-05-07 16:07 62.41092 11.08709 6004 ft 158 kts 288°
2026-05-07 16:07 62.41443 11.06462 6001 ft 158 kts 288°
2026-05-07 16:07 62.41878 11.04288 6007 ft 158 kts 301°
2026-05-07 16:07 62.42495 11.02302 6015 ft 161 kts 303°
2026-05-07 16:08 62.43135 11.00319 6003 ft 160 kts 304°
2026-05-07 16:08 62.43775 10.98346 6005 ft 161 kts 304°
2026-05-07 16:08 62.44420 10.96368 6008 ft 161 kts 304°
2026-05-07 16:08 62.45062 10.94397 6007 ft 160 kts 304°
2026-05-07 16:09 62.45701 10.92434 6016 ft 160 kts 304°
2026-05-07 16:09 62.46517 10.90826 6003 ft 163 kts 335°
2026-05-07 16:09 62.47641 10.90722 6010 ft 167 kts 16°
2026-05-07 16:09 62.48550 10.92240 6018 ft 169 kts 57°
2026-05-07 16:10 62.48915 10.94643 6012 ft 170 kts 79°
2026-05-07 16:10 62.49109 10.97160 6005 ft 169 kts 83°
2026-05-07 16:10 62.49199 10.99689 6010 ft 168 kts 86°
2026-05-07 16:10 62.49263 11.02220 6010 ft 169 kts 87°
2026-05-07 16:11 62.49325 11.04775 6007 ft 170 kts 87°
2026-05-07 16:11 62.49388 11.07301 6008 ft 170 kts 87°
2026-05-07 16:11 62.49450 11.09859 6003 ft 171 kts 87°
2026-05-07 16:11 62.49511 11.12419 6005 ft 170 kts 87°
2026-05-07 16:12 62.49544 11.15021 5890 ft 176 kts 93°
2026-05-07 16:12 62.49331 11.17664 5754 ft 180 kts 103°
2026-05-07 16:12 62.49040 11.20303 5626 ft 181 kts 104°
2026-05-07 16:12 62.48726 11.22951 5500 ft 182 kts 106°
2026-05-07 16:13 62.48364 11.25572 5364 ft 180 kts 109°
2026-05-07 16:13 62.47954 11.28137 5227 ft 180 kts 110°
2026-05-07 16:13 62.47542 11.30686 5105 ft 178 kts 110°
2026-05-07 16:13 62.47130 11.33199 4980 ft 177 kts 111°
2026-05-07 16:14 62.46722 11.35704 4842 ft 177 kts 110°
2026-05-07 16:14 62.46312 11.38219 4716 ft 177 kts 110°
2026-05-07 16:14 62.45908 11.40692 4598 ft 178 kts 110°
2026-05-07 16:14 62.45587 11.43261 4446 ft 179 kts 95°
2026-05-07 16:15 62.45830 11.45836 4336 ft 174 kts 59°
2026-05-07 16:15 62.46680 11.47582 4249 ft 168 kts 27°
2026-05-07 16:15 62.47713 11.48735 4114 ft 168 kts 20°
2026-05-07 16:15 62.48828 11.49243 4050 ft 160 kts 355°
2026-05-07 16:16 62.49901 11.48727 3973 ft 159 kts 343°
2026-05-07 16:16 62.50961 11.48038 3816 ft 158 kts 339°
2026-05-07 16:16 62.51970 11.47248 3773 ft 151 kts 337°
2026-05-07 16:16 62.52928 11.46379 3657 ft 146 kts 328°
2026-05-07 16:17 62.53640 11.44919 3438 ft 139 kts 308°
2026-05-07 16:17 62.54226 11.43272 3156 ft 137 kts 306°
2026-05-07 16:17 62.54783 11.41634 2892 ft 130 kts 307°
2026-05-07 16:17 62.55267 11.40195 2734 ft 106 kts 307°
2026-05-07 16:18 62.55727 11.39026 2562 ft 100 kts 314°
2026-05-07 16:18 62.56221 11.37989 2435 ft 98 kts 314°
2026-05-07 16:18 62.56714 11.36977 2308 ft 98 kts 313°
2026-05-07 16:18 62.57203 11.35952 2141 ft 98 kts 313°
2026-05-07 16:19 62.57588 11.35150 2054 ft 43 kts 315°
2026-05-07 16:19 62.57658 11.35016 2054 ft 7 kts 346°
2026-05-07 16:19 62.57710 11.35096 2054 ft 11 kts 52°
2026-05-07 16:19 62.57673 11.35233 2054 ft 12 kts 123°
2026-05-07 16:20 62.57649 11.35376 2054 ft 2 kts 129°
2026-05-07 16:20 62.57649 11.35377 2054 ft 0 kts 128°